sensor_id;sensor_type;location;lat;lon;timestamp;P1;durP1;ratioP1;P2;durP2;ratioP2
31990;SDS011;18508;49.386;8.370;2022-12-07T00:01:17;14.18;;;6.25;;
31990;SDS011;18508;49.386;8.370;2022-12-07T00:03:47;14.20;;;6.70;;
31990;SDS011;18508;49.386;8.370;2022-12-07T00:06:17;14.85;;;7.07;;
31990;SDS011;18508;49.386;8.370;2022-12-07T00:08:46;12.55;;;6.65;;
31990;SDS011;18508;49.386;8.370;2022-12-07T00:11:15;16.85;;;7.95;;
31990;SDS011;18508;49.386;8.370;2022-12-07T00:13:46;17.30;;;8.43;;
31990;SDS011;18508;49.386;8.370;2022-12-07T00:16:19;13.73;;;7.40;;
31990;SDS011;18508;49.386;8.370;2022-12-07T00:18:49;12.88;;;6.25;;
31990;SDS011;18508;49.386;8.370;2022-12-07T00:21:17;12.02;;;6.00;;
31990;SDS011;18508;49.386;8.370;2022-12-07T00:23:47;14.80;;;6.85;;
31990;SDS011;18508;49.386;8.370;2022-12-07T00:26:17;19.23;;;10.30;;
31990;SDS011;18508;49.386;8.370;2022-12-07T00:28:48;17.38;;;9.85;;
31990;SDS011;18508;49.386;8.370;2022-12-07T00:31:18;19.13;;;9.18;;
31990;SDS011;18508;49.386;8.370;2022-12-07T00:33:48;17.85;;;7.97;;
31990;SDS011;18508;49.386;8.370;2022-12-07T00:36:17;14.77;;;6.90;;
31990;SDS011;18508;49.386;8.370;2022-12-07T00:38:52;14.02;;;6.75;;
31990;SDS011;18508;49.386;8.370;2022-12-07T00:41:21;12.20;;;5.60;;
31990;SDS011;18508;49.386;8.370;2022-12-07T00:43:52;12.38;;;5.97;;
31990;SDS011;18508;49.386;8.370;2022-12-07T00:46:20;14.55;;;5.93;;
31990;SDS011;18508;49.386;8.370;2022-12-07T00:48:49;10.80;;;4.85;;
31990;SDS011;18508;49.386;8.370;2022-12-07T00:51:19;12.18;;;5.93;;
31990;SDS011;18508;49.386;8.370;2022-12-07T00:53:48;12.57;;;6.07;;
31990;SDS011;18508;49.386;8.370;2022-12-07T00:56:17;13.10;;;6.03;;
31990;SDS011;18508;49.386;8.370;2022-12-07T00:58:49;9.98;;;5.25;;
31990;SDS011;18508;49.386;8.370;2022-12-07T01:01:19;10.15;;;5.28;;
31990;SDS011;18508;49.386;8.370;2022-12-07T01:03:47;11.32;;;5.90;;
31990;SDS011;18508;49.386;8.370;2022-12-07T01:06:16;10.52;;;5.55;;
31990;SDS011;18508;49.386;8.370;2022-12-07T01:08:46;10.43;;;5.32;;
31990;SDS011;18508;49.386;8.370;2022-12-07T01:11:15;10.10;;;5.55;;
31990;SDS011;18508;49.386;8.370;2022-12-07T01:13:45;11.50;;;6.00;;
31990;SDS011;18508;49.386;8.370;2022-12-07T01:16:15;11.20;;;5.60;;
31990;SDS011;18508;49.386;8.370;2022-12-07T01:18:46;10.43;;;5.70;;
31990;SDS011;18508;49.386;8.370;2022-12-07T01:21:16;10.38;;;5.75;;
31990;SDS011;18508;49.386;8.370;2022-12-07T01:23:47;10.75;;;5.78;;
31990;SDS011;18508;49.386;8.370;2022-12-07T01:26:15;12.18;;;6.00;;
31990;SDS011;18508;49.386;8.370;2022-12-07T01:28:44;11.70;;;5.60;;
31990;SDS011;18508;49.386;8.370;2022-12-07T01:31:15;12.70;;;6.03;;
31990;SDS011;18508;49.386;8.370;2022-12-07T01:33:44;12.60;;;6.00;;
31990;SDS011;18508;49.386;8.370;2022-12-07T01:36:14;10.77;;;5.82;;
31990;SDS011;18508;49.386;8.370;2022-12-07T01:38:43;12.00;;;6.05;;
31990;SDS011;18508;49.386;8.370;2022-12-07T01:41:12;9.70;;;5.28;;
31990;SDS011;18508;49.386;8.370;2022-12-07T01:44:07;13.15;;;5.85;;
31990;SDS011;18508;49.386;8.370;2022-12-07T01:46:45;14.07;;;5.85;;
31990;SDS011;18508;49.386;8.370;2022-12-07T01:49:16;12.98;;;6.47;;
31990;SDS011;18508;49.386;8.370;2022-12-07T01:51:49;10.27;;;5.22;;
31990;SDS011;18508;49.386;8.370;2022-12-07T01:54:19;12.25;;;5.78;;
31990;SDS011;18508;49.386;8.370;2022-12-07T01:56:49;12.45;;;5.97;;
31990;SDS011;18508;49.386;8.370;2022-12-07T01:59:20;12.18;;;5.95;;
31990;SDS011;18508;49.386;8.370;2022-12-07T02:01:53;12.38;;;5.88;;
31990;SDS011;18508;49.386;8.370;2022-12-07T02:04:22;11.45;;;5.20;;
31990;SDS011;18508;49.386;8.370;2022-12-07T02:06:51;11.95;;;5.40;;
31990;SDS011;18508;49.386;8.370;2022-12-07T02:09:20;10.05;;;5.10;;
31990;SDS011;18508;49.386;8.370;2022-12-07T02:11:48;10.50;;;5.20;;
31990;SDS011;18508;49.386;8.370;2022-12-07T02:14:16;11.48;;;5.72;;
31990;SDS011;18508;49.386;8.370;2022-12-07T02:16:47;10.38;;;5.50;;
31990;SDS011;18508;49.386;8.370;2022-12-07T02:22:42;12.70;;;5.60;;
31990;SDS011;18508;49.386;8.370;2022-12-07T02:25:23;9.93;;;5.20;;
31990;SDS011;18508;49.386;8.370;2022-12-07T02:28:12;10.27;;;5.57;;
31990;SDS011;18508;49.386;8.370;2022-12-07T02:33:24;13.07;;;5.65;;
31990;SDS011;18508;49.386;8.370;2022-12-07T02:35:57;14.02;;;5.38;;
31990;SDS011;18508;49.386;8.370;2022-12-07T02:38:31;11.88;;;6.20;;
31990;SDS011;18508;49.386;8.370;2022-12-07T02:41:06;11.93;;;6.30;;
31990;SDS011;18508;49.386;8.370;2022-12-07T02:43:38;14.23;;;5.78;;
31990;SDS011;18508;49.386;8.370;2022-12-07T02:46:11;10.55;;;5.78;;
31990;SDS011;18508;49.386;8.370;2022-12-07T02:51:10;11.85;;;5.65;;
31990;SDS011;18508;49.386;8.370;2022-12-07T02:53:39;12.80;;;5.30;;
31990;SDS011;18508;49.386;8.370;2022-12-07T02:56:10;12.55;;;5.35;;
31990;SDS011;18508;49.386;8.370;2022-12-07T02:58:50;15.32;;;5.68;;
31990;SDS011;18508;49.386;8.370;2022-12-07T03:01:33;11.32;;;5.28;;
31990;SDS011;18508;49.386;8.370;2022-12-07T03:04:12;11.18;;;5.47;;
31990;SDS011;18508;49.386;8.370;2022-12-07T03:06:57;13.20;;;5.22;;
31990;SDS011;18508;49.386;8.370;2022-12-07T03:09:33;13.05;;;6.30;;
31990;SDS011;18508;49.386;8.370;2022-12-07T03:12:10;9.98;;;5.05;;
31990;SDS011;18508;49.386;8.370;2022-12-07T03:14:45;11.25;;;5.03;;
31990;SDS011;18508;49.386;8.370;2022-12-07T03:17:20;12.18;;;6.03;;
31990;SDS011;18508;49.386;8.370;2022-12-07T03:19:52;12.98;;;5.90;;
31990;SDS011;18508;49.386;8.370;2022-12-07T03:22:26;10.63;;;5.40;;
31990;SDS011;18508;49.386;8.370;2022-12-07T03:25:03;11.60;;;5.38;;
31990;SDS011;18508;49.386;8.370;2022-12-07T03:27:35;11.18;;;5.30;;
31990;SDS011;18508;49.386;8.370;2022-12-07T03:30:08;9.65;;;4.97;;
31990;SDS011;18508;49.386;8.370;2022-12-07T03:32:41;12.05;;;5.32;;
31990;SDS011;18508;49.386;8.370;2022-12-07T03:35:14;10.65;;;5.35;;
31990;SDS011;18508;49.386;8.370;2022-12-07T03:37:48;10.38;;;5.25;;
31990;SDS011;18508;49.386;8.370;2022-12-07T03:40:20;13.07;;;6.00;;
31990;SDS011;18508;49.386;8.370;2022-12-07T03:42:53;12.85;;;6.25;;
31990;SDS011;18508;49.386;8.370;2022-12-07T03:45:27;15.15;;;6.18;;
31990;SDS011;18508;49.386;8.370;2022-12-07T03:48:03;9.90;;;5.22;;
31990;SDS011;18508;49.386;8.370;2022-12-07T03:50:38;10.85;;;5.78;;
31990;SDS011;18508;49.386;8.370;2022-12-07T03:53:11;11.70;;;5.47;;
31990;SDS011;18508;49.386;8.370;2022-12-07T03:55:44;12.57;;;5.30;;
31990;SDS011;18508;49.386;8.370;2022-12-07T03:58:16;12.77;;;5.60;;
31990;SDS011;18508;49.386;8.370;2022-12-07T04:00:47;11.73;;;5.47;;
31990;SDS011;18508;49.386;8.370;2022-12-07T04:03:18;12.35;;;6.10;;
31990;SDS011;18508;49.386;8.370;2022-12-07T04:05:46;12.32;;;5.93;;
31990;SDS011;18508;49.386;8.370;2022-12-07T04:08:15;11.13;;;5.53;;
31990;SDS011;18508;49.386;8.370;2022-12-07T04:10:43;10.52;;;5.57;;
31990;SDS011;18508;49.386;8.370;2022-12-07T04:13:11;12.10;;;5.75;;
31990;SDS011;18508;49.386;8.370;2022-12-07T04:15:39;11.65;;;5.68;;
31990;SDS011;18508;49.386;8.370;2022-12-07T04:18:07;13.00;;;6.00;;
31990;SDS011;18508;49.386;8.370;2022-12-07T04:20:37;13.75;;;5.93;;
31990;SDS011;18508;49.386;8.370;2022-12-07T04:23:05;15.95;;;6.70;;
31990;SDS011;18508;49.386;8.370;2022-12-07T04:25:33;12.95;;;6.25;;
31990;SDS011;18508;49.386;8.370;2022-12-07T04:28:01;12.18;;;5.82;;
31990;SDS011;18508;49.386;8.370;2022-12-07T04:30:29;10.80;;;5.53;;
31990;SDS011;18508;49.386;8.370;2022-12-07T04:32:57;13.25;;;6.53;;
31990;SDS011;18508;49.386;8.370;2022-12-07T04:35:25;12.18;;;6.22;;
31990;SDS011;18508;49.386;8.370;2022-12-07T04:37:54;14.30;;;5.70;;
31990;SDS011;18508;49.386;8.370;2022-12-07T04:40:22;13.90;;;6.15;;
31990;SDS011;18508;49.386;8.370;2022-12-07T04:42:50;10.85;;;5.38;;
31990;SDS011;18508;49.386;8.370;2022-12-07T04:45:18;12.70;;;6.28;;
31990;SDS011;18508;49.386;8.370;2022-12-07T04:47:46;12.32;;;5.82;;
31990;SDS011;18508;49.386;8.370;2022-12-07T04:50:14;11.63;;;5.78;;
31990;SDS011;18508;49.386;8.370;2022-12-07T04:52:42;12.20;;;5.95;;
31990;SDS011;18508;49.386;8.370;2022-12-07T04:55:12;12.60;;;5.75;;
31990;SDS011;18508;49.386;8.370;2022-12-07T04:57:40;13.05;;;6.57;;
31990;SDS011;18508;49.386;8.370;2022-12-07T05:00:08;10.43;;;5.82;;
31990;SDS011;18508;49.386;8.370;2022-12-07T05:02:37;10.43;;;5.15;;
31990;SDS011;18508;49.386;8.370;2022-12-07T05:05:05;12.95;;;6.47;;
31990;SDS011;18508;49.386;8.370;2022-12-07T05:07:34;13.18;;;6.40;;
31990;SDS011;18508;49.386;8.370;2022-12-07T05:10:02;13.70;;;6.28;;
31990;SDS011;18508;49.386;8.370;2022-12-07T05:12:32;15.10;;;5.97;;
31990;SDS011;18508;49.386;8.370;2022-12-07T05:15:00;14.57;;;5.85;;
31990;SDS011;18508;49.386;8.370;2022-12-07T05:17:28;13.75;;;6.47;;
31990;SDS011;18508;49.386;8.370;2022-12-07T05:19:56;15.82;;;6.40;;
31990;SDS011;18508;49.386;8.370;2022-12-07T05:22:25;12.35;;;5.75;;
31990;SDS011;18508;49.386;8.370;2022-12-07T05:24:54;13.70;;;6.32;;
31990;SDS011;18508;49.386;8.370;2022-12-07T05:27:22;11.63;;;5.90;;
31990;SDS011;18508;49.386;8.370;2022-12-07T05:29:52;15.25;;;6.57;;
31990;SDS011;18508;49.386;8.370;2022-12-07T05:32:20;13.48;;;6.53;;
31990;SDS011;18508;49.386;8.370;2022-12-07T05:34:48;13.60;;;7.00;;
31990;SDS011;18508;49.386;8.370;2022-12-07T05:37:16;11.18;;;5.85;;
31990;SDS011;18508;49.386;8.370;2022-12-07T05:39:44;13.15;;;6.75;;
31990;SDS011;18508;49.386;8.370;2022-12-07T05:42:12;11.88;;;5.88;;
31990;SDS011;18508;49.386;8.370;2022-12-07T05:44:39;12.13;;;6.53;;
31990;SDS011;18508;49.386;8.370;2022-12-07T05:47:09;11.85;;;5.82;;
31990;SDS011;18508;49.386;8.370;2022-12-07T05:49:37;16.35;;;7.38;;
31990;SDS011;18508;49.386;8.370;2022-12-07T05:52:05;16.42;;;7.72;;
31990;SDS011;18508;49.386;8.370;2022-12-07T05:54:34;17.40;;;7.28;;
31990;SDS011;18508;49.386;8.370;2022-12-07T05:57:02;16.67;;;6.60;;
31990;SDS011;18508;49.386;8.370;2022-12-07T05:59:31;17.35;;;6.63;;
31990;SDS011;18508;49.386;8.370;2022-12-07T06:01:58;12.18;;;6.20;;
31990;SDS011;18508;49.386;8.370;2022-12-07T06:04:31;15.18;;;6.50;;
31990;SDS011;18508;49.386;8.370;2022-12-07T06:07:01;12.40;;;5.97;;
31990;SDS011;18508;49.386;8.370;2022-12-07T06:09:29;13.80;;;5.88;;
31990;SDS011;18508;49.386;8.370;2022-12-07T06:11:57;12.88;;;5.63;;
31990;SDS011;18508;49.386;8.370;2022-12-07T06:14:43;11.18;;;6.18;;
31990;SDS011;18508;49.386;8.370;2022-12-07T06:17:12;10.27;;;5.47;;
31990;SDS011;18508;49.386;8.370;2022-12-07T06:19:42;11.43;;;5.72;;
31990;SDS011;18508;49.386;8.370;2022-12-07T06:22:10;13.73;;;6.15;;
31990;SDS011;18508;49.386;8.370;2022-12-07T06:24:39;11.65;;;5.57;;
31990;SDS011;18508;49.386;8.370;2022-12-07T06:27:07;12.82;;;6.32;;
31990;SDS011;18508;49.386;8.370;2022-12-07T06:29:36;11.98;;;5.70;;
31990;SDS011;18508;49.386;8.370;2022-12-07T06:32:04;16.13;;;6.85;;
31990;SDS011;18508;49.386;8.370;2022-12-07T06:34:33;14.02;;;6.45;;
31990;SDS011;18508;49.386;8.370;2022-12-07T06:37:02;15.00;;;6.05;;
31990;SDS011;18508;49.386;8.370;2022-12-07T06:39:30;13.13;;;5.85;;
31990;SDS011;18508;49.386;8.370;2022-12-07T06:41:58;12.05;;;6.00;;
31990;SDS011;18508;49.386;8.370;2022-12-07T06:44:26;11.90;;;5.80;;
31990;SDS011;18508;49.386;8.370;2022-12-07T06:46:54;10.65;;;5.75;;
31990;SDS011;18508;49.386;8.370;2022-12-07T06:49:42;14.35;;;6.82;;
31990;SDS011;18508;49.386;8.370;2022-12-07T06:52:12;13.18;;;6.70;;
31990;SDS011;18508;49.386;8.370;2022-12-07T06:54:40;12.82;;;6.95;;
31990;SDS011;18508;49.386;8.370;2022-12-07T06:57:08;14.43;;;6.97;;
31990;SDS011;18508;49.386;8.370;2022-12-07T06:59:36;12.30;;;6.95;;
31990;SDS011;18508;49.386;8.370;2022-12-07T07:02:04;15.43;;;7.25;;
31990;SDS011;18508;49.386;8.370;2022-12-07T07:04:32;14.63;;;7.03;;
31990;SDS011;18508;49.386;8.370;2022-12-07T07:07:00;13.32;;;7.25;;
31990;SDS011;18508;49.386;8.370;2022-12-07T07:09:30;15.02;;;7.68;;
31990;SDS011;18508;49.386;8.370;2022-12-07T07:11:58;16.00;;;7.85;;
31990;SDS011;18508;49.386;8.370;2022-12-07T07:14:26;16.95;;;8.32;;
31990;SDS011;18508;49.386;8.370;2022-12-07T07:16:54;16.25;;;7.82;;
31990;SDS011;18508;49.386;8.370;2022-12-07T07:19:22;16.85;;;9.00;;
31990;SDS011;18508;49.386;8.370;2022-12-07T07:21:50;21.35;;;9.85;;
31990;SDS011;18508;49.386;8.370;2022-12-07T07:24:18;21.58;;;9.50;;
31990;SDS011;18508;49.386;8.370;2022-12-07T07:26:48;15.80;;;8.90;;
31990;SDS011;18508;49.386;8.370;2022-12-07T07:29:16;16.83;;;8.43;;
31990;SDS011;18508;49.386;8.370;2022-12-07T07:31:44;19.67;;;8.75;;
31990;SDS011;18508;49.386;8.370;2022-12-07T07:34:12;22.15;;;10.40;;
31990;SDS011;18508;49.386;8.370;2022-12-07T07:36:40;25.27;;;10.80;;
31990;SDS011;18508;49.386;8.370;2022-12-07T07:39:09;24.05;;;10.82;;
31990;SDS011;18508;49.386;8.370;2022-12-07T07:41:38;20.85;;;10.32;;
31990;SDS011;18508;49.386;8.370;2022-12-07T07:44:09;19.27;;;10.77;;
31990;SDS011;18508;49.386;8.370;2022-12-07T07:46:37;19.67;;;9.70;;
31990;SDS011;18508;49.386;8.370;2022-12-07T07:49:05;19.73;;;9.85;;
31990;SDS011;18508;49.386;8.370;2022-12-07T07:51:33;18.15;;;9.07;;
31990;SDS011;18508;49.386;8.370;2022-12-07T07:54:01;18.75;;;9.05;;
31990;SDS011;18508;49.386;8.370;2022-12-07T07:56:29;22.77;;;11.68;;
31990;SDS011;18508;49.386;8.370;2022-12-07T07:58:57;24.95;;;12.35;;
31990;SDS011;18508;49.386;8.370;2022-12-07T08:01:27;25.48;;;13.40;;
31990;SDS011;18508;49.386;8.370;2022-12-07T08:03:55;23.85;;;12.30;;
31990;SDS011;18508;49.386;8.370;2022-12-07T08:06:23;24.00;;;11.57;;
31990;SDS011;18508;49.386;8.370;2022-12-07T08:08:57;21.08;;;10.80;;
31990;SDS011;18508;49.386;8.370;2022-12-07T08:11:25;18.58;;;10.38;;
31990;SDS011;18508;49.386;8.370;2022-12-07T08:13:53;22.20;;;10.23;;
31990;SDS011;18508;49.386;8.370;2022-12-07T08:16:21;18.60;;;10.45;;
31990;SDS011;18508;49.386;8.370;2022-12-07T08:18:51;22.55;;;10.88;;
31990;SDS011;18508;49.386;8.370;2022-12-07T08:21:19;20.38;;;9.95;;
31990;SDS011;18508;49.386;8.370;2022-12-07T08:23:47;19.63;;;10.38;;
31990;SDS011;18508;49.386;8.370;2022-12-07T08:26:16;20.40;;;9.50;;
31990;SDS011;18508;49.386;8.370;2022-12-07T08:28:44;17.20;;;8.48;;
31990;SDS011;18508;49.386;8.370;2022-12-07T08:31:13;15.65;;;8.70;;
31990;SDS011;18508;49.386;8.370;2022-12-07T08:33:44;16.10;;;7.95;;
31990;SDS011;18508;49.386;8.370;2022-12-07T08:36:14;15.30;;;8.00;;
31990;SDS011;18508;49.386;8.370;2022-12-07T08:38:42;17.35;;;7.78;;
31990;SDS011;18508;49.386;8.370;2022-12-07T08:41:30;14.23;;;6.50;;
31990;SDS011;18508;49.386;8.370;2022-12-07T08:43:59;14.30;;;6.63;;
31990;SDS011;18508;49.386;8.370;2022-12-07T08:46:28;12.27;;;6.55;;
31990;SDS011;18508;49.386;8.370;2022-12-07T08:49:02;11.48;;;5.95;;
31990;SDS011;18508;49.386;8.370;2022-12-07T08:51:34;11.82;;;6.60;;
31990;SDS011;18508;49.386;8.370;2022-12-07T08:54:04;16.95;;;7.57;;
31990;SDS011;18508;49.386;8.370;2022-12-07T08:56:35;23.55;;;10.18;;
31990;SDS011;18508;49.386;8.370;2022-12-07T08:59:04;18.42;;;10.25;;
31990;SDS011;18508;49.386;8.370;2022-12-07T09:01:32;15.77;;;8.85;;
31990;SDS011;18508;49.386;8.370;2022-12-07T09:04:01;19.15;;;9.00;;
31990;SDS011;18508;49.386;8.370;2022-12-07T09:06:29;14.23;;;6.93;;
31990;SDS011;18508;49.386;8.370;2022-12-07T09:08:59;18.67;;;8.35;;
31990;SDS011;18508;49.386;8.370;2022-12-07T09:11:28;12.77;;;6.85;;
31990;SDS011;18508;49.386;8.370;2022-12-07T09:13:57;14.52;;;6.63;;
31990;SDS011;18508;49.386;8.370;2022-12-07T09:16:25;14.95;;;8.07;;
31990;SDS011;18508;49.386;8.370;2022-12-07T09:18:53;13.07;;;7.13;;
31990;SDS011;18508;49.386;8.370;2022-12-07T09:21:21;19.75;;;10.23;;
31990;SDS011;18508;49.386;8.370;2022-12-07T09:23:49;20.20;;;10.90;;
31990;SDS011;18508;49.386;8.370;2022-12-07T09:26:21;22.88;;;12.02;;
31990;SDS011;18508;49.386;8.370;2022-12-07T09:28:49;17.45;;;8.68;;
31990;SDS011;18508;49.386;8.370;2022-12-07T09:31:17;21.38;;;11.35;;
31990;SDS011;18508;49.386;8.370;2022-12-07T09:33:52;21.20;;;9.05;;
31990;SDS011;18508;49.386;8.370;2022-12-07T09:36:21;17.33;;;9.30;;
31990;SDS011;18508;49.386;8.370;2022-12-07T09:38:50;21.65;;;9.93;;
31990;SDS011;18508;49.386;8.370;2022-12-07T09:41:18;16.35;;;8.65;;
31990;SDS011;18508;49.386;8.370;2022-12-07T09:43:48;19.85;;;9.30;;
31990;SDS011;18508;49.386;8.370;2022-12-07T09:46:16;16.25;;;8.32;;
31990;SDS011;18508;49.386;8.370;2022-12-07T09:48:46;15.25;;;7.82;;
31990;SDS011;18508;49.386;8.370;2022-12-07T09:51:17;16.75;;;8.93;;
31990;SDS011;18508;49.386;8.370;2022-12-07T09:53:50;22.17;;;12.50;;
31990;SDS011;18508;49.386;8.370;2022-12-07T09:56:19;16.58;;;9.20;;
31990;SDS011;18508;49.386;8.370;2022-12-07T09:58:49;17.10;;;9.77;;
31990;SDS011;18508;49.386;8.370;2022-12-07T10:01:22;16.25;;;9.38;;
31990;SDS011;18508;49.386;8.370;2022-12-07T10:03:50;16.83;;;8.65;;
31990;SDS011;18508;49.386;8.370;2022-12-07T10:06:23;15.50;;;8.52;;
31990;SDS011;18508;49.386;8.370;2022-12-07T10:08:51;16.35;;;8.43;;
31990;SDS011;18508;49.386;8.370;2022-12-07T10:11:19;16.67;;;8.23;;
31990;SDS011;18508;49.386;8.370;2022-12-07T10:13:47;15.52;;;7.32;;
31990;SDS011;18508;49.386;8.370;2022-12-07T10:16:38;12.80;;;7.78;;
31990;SDS011;18508;49.386;8.370;2022-12-07T10:19:17;12.25;;;7.28;;
31990;SDS011;18508;49.386;8.370;2022-12-07T10:21:59;13.30;;;7.38;;
31990;SDS011;18508;49.386;8.370;2022-12-07T10:24:29;13.48;;;6.93;;
31990;SDS011;18508;49.386;8.370;2022-12-07T10:26:57;15.40;;;6.95;;
31990;SDS011;18508;49.386;8.370;2022-12-07T10:29:29;16.02;;;8.50;;
31990;SDS011;18508;49.386;8.370;2022-12-07T10:32:00;17.88;;;8.20;;
31990;SDS011;18508;49.386;8.370;2022-12-07T10:34:30;15.93;;;7.65;;
31990;SDS011;18508;49.386;8.370;2022-12-07T10:37:12;14.20;;;6.82;;
31990;SDS011;18508;49.386;8.370;2022-12-07T10:39:43;11.60;;;6.22;;
31990;SDS011;18508;49.386;8.370;2022-12-07T10:42:16;13.07;;;7.07;;
31990;SDS011;18508;49.386;8.370;2022-12-07T10:44:47;12.98;;;6.20;;
31990;SDS011;18508;49.386;8.370;2022-12-07T10:47:20;10.52;;;5.80;;
31990;SDS011;18508;49.386;8.370;2022-12-07T10:56:08;12.00;;;5.75;;
31990;SDS011;18508;49.386;8.370;2022-12-07T10:58:51;13.02;;;5.80;;
31990;SDS011;18508;49.386;8.370;2022-12-07T11:01:30;11.75;;;5.32;;
31990;SDS011;18508;49.386;8.370;2022-12-07T11:04:08;11.27;;;5.63;;
31990;SDS011;18508;49.386;8.370;2022-12-07T11:06:57;8.30;;;4.38;;
31990;SDS011;18508;49.386;8.370;2022-12-07T11:09:51;12.50;;;5.78;;
31990;SDS011;18508;49.386;8.370;2022-12-07T11:12:38;11.15;;;5.50;;
31990;SDS011;18508;49.386;8.370;2022-12-07T11:17:53;12.48;;;6.25;;
31990;SDS011;18508;49.386;8.370;2022-12-07T11:20:29;12.55;;;5.88;;
31990;SDS011;18508;49.386;8.370;2022-12-07T11:23:11;10.98;;;5.68;;
31990;SDS011;18508;49.386;8.370;2022-12-07T11:25:48;11.13;;;5.25;;
31990;SDS011;18508;49.386;8.370;2022-12-07T11:28:25;10.35;;;5.13;;
31990;SDS011;18508;49.386;8.370;2022-12-07T11:31:08;9.10;;;4.60;;
31990;SDS011;18508;49.386;8.370;2022-12-07T11:33:56;9.10;;;4.90;;
31990;SDS011;18508;49.386;8.370;2022-12-07T11:36:32;10.10;;;5.28;;
31990;SDS011;18508;49.386;8.370;2022-12-07T11:39:09;11.07;;;5.20;;
31990;SDS011;18508;49.386;8.370;2022-12-07T11:41:43;11.18;;;5.60;;
31990;SDS011;18508;49.386;8.370;2022-12-07T11:44:17;11.82;;;4.65;;
31990;SDS011;18508;49.386;8.370;2022-12-07T11:46:54;9.93;;;5.03;;
31990;SDS011;18508;49.386;8.370;2022-12-07T11:49:33;16.45;;;6.90;;
31990;SDS011;18508;49.386;8.370;2022-12-07T11:52:11;9.57;;;4.85;;
31990;SDS011;18508;49.386;8.370;2022-12-07T11:54:47;12.13;;;6.07;;
31990;SDS011;18508;49.386;8.370;2022-12-07T11:57:20;10.55;;;5.75;;
31990;SDS011;18508;49.386;8.370;2022-12-07T11:59:56;11.63;;;4.78;;
31990;SDS011;18508;49.386;8.370;2022-12-07T12:02:31;8.20;;;4.13;;
31990;SDS011;18508;49.386;8.370;2022-12-07T12:05:15;10.25;;;4.70;;
31990;SDS011;18508;49.386;8.370;2022-12-07T12:07:49;9.50;;;4.30;;
31990;SDS011;18508;49.386;8.370;2022-12-07T12:10:48;8.23;;;3.65;;
31990;SDS011;18508;49.386;8.370;2022-12-07T12:13:27;8.68;;;4.15;;
31990;SDS011;18508;49.386;8.370;2022-12-07T12:16:42;6.18;;;3.55;;
31990;SDS011;18508;49.386;8.370;2022-12-07T12:19:24;11.45;;;4.70;;
31990;SDS011;18508;49.386;8.370;2022-12-07T12:21:59;8.63;;;4.22;;
31990;SDS011;18508;49.386;8.370;2022-12-07T12:24:36;8.13;;;4.32;;
31990;SDS011;18508;49.386;8.370;2022-12-07T12:27:08;5.70;;;3.03;;
31990;SDS011;18508;49.386;8.370;2022-12-07T12:29:43;11.82;;;3.25;;
31990;SDS011;18508;49.386;8.370;2022-12-07T12:32:13;6.53;;;3.15;;
31990;SDS011;18508;49.386;8.370;2022-12-07T12:35:02;7.32;;;4.10;;
31990;SDS011;18508;49.386;8.370;2022-12-07T12:37:47;8.10;;;3.78;;
31990;SDS011;18508;49.386;8.370;2022-12-07T12:58:35;6.32;;;3.40;;
31990;SDS011;18508;49.386;8.370;2022-12-07T13:04:24;6.65;;;3.72;;
31990;SDS011;18508;49.386;8.370;2022-12-07T13:06:55;8.75;;;4.00;;
31990;SDS011;18508;49.386;8.370;2022-12-07T13:09:24;7.57;;;4.05;;
31990;SDS011;18508;49.386;8.370;2022-12-07T13:11:56;9.77;;;3.37;;
31990;SDS011;18508;49.386;8.370;2022-12-07T13:20:46;10.65;;;5.00;;
31990;SDS011;18508;49.386;8.370;2022-12-07T13:23:26;10.48;;;5.20;;
31990;SDS011;18508;49.386;8.370;2022-12-07T13:26:00;10.27;;;4.82;;
31990;SDS011;18508;49.386;8.370;2022-12-07T13:28:43;9.27;;;4.93;;
31990;SDS011;18508;49.386;8.370;2022-12-07T13:34:02;9.18;;;4.40;;
31990;SDS011;18508;49.386;8.370;2022-12-07T13:36:33;11.88;;;4.95;;
31990;SDS011;18508;49.386;8.370;2022-12-07T13:39:11;6.32;;;4.30;;
31990;SDS011;18508;49.386;8.370;2022-12-07T13:41:48;8.52;;;4.45;;
31990;SDS011;18508;49.386;8.370;2022-12-07T13:44:19;7.80;;;3.80;;
31990;SDS011;18508;49.386;8.370;2022-12-07T13:46:53;6.88;;;3.83;;
31990;SDS011;18508;49.386;8.370;2022-12-07T13:49:28;7.50;;;3.67;;
31990;SDS011;18508;49.386;8.370;2022-12-07T13:52:08;7.82;;;3.83;;
31990;SDS011;18508;49.386;8.370;2022-12-07T13:54:46;6.75;;;3.10;;
31990;SDS011;18508;49.386;8.370;2022-12-07T13:57:16;14.68;;;6.38;;
31990;SDS011;18508;49.386;8.370;2022-12-07T13:59:44;38.30;;;16.52;;
31990;SDS011;18508;49.386;8.370;2022-12-07T14:02:21;20.25;;;9.15;;
31990;SDS011;18508;49.386;8.370;2022-12-07T14:05:06;8.05;;;4.13;;
31990;SDS011;18508;49.386;8.370;2022-12-07T14:07:54;8.30;;;3.15;;
31990;SDS011;18508;49.386;8.370;2022-12-07T14:10:24;5.50;;;2.60;;
31990;SDS011;18508;49.386;8.370;2022-12-07T14:12:54;5.07;;;2.20;;
31990;SDS011;18508;49.386;8.370;2022-12-07T14:15:24;5.97;;;2.75;;
31990;SDS011;18508;49.386;8.370;2022-12-07T14:17:57;5.88;;;2.50;;
31990;SDS011;18508;49.386;8.370;2022-12-07T14:20:30;6.55;;;2.88;;
31990;SDS011;18508;49.386;8.370;2022-12-07T14:22:59;5.32;;;2.60;;
31990;SDS011;18508;49.386;8.370;2022-12-07T14:25:44;5.28;;;2.53;;
31990;SDS011;18508;49.386;8.370;2022-12-07T14:28:24;5.90;;;2.47;;
31990;SDS011;18508;49.386;8.370;2022-12-07T14:30:53;7.10;;;3.30;;
31990;SDS011;18508;49.386;8.370;2022-12-07T14:33:23;5.47;;;3.00;;
31990;SDS011;18508;49.386;8.370;2022-12-07T14:35:52;6.03;;;2.50;;
31990;SDS011;18508;49.386;8.370;2022-12-07T14:38:24;5.72;;;2.40;;
31990;SDS011;18508;49.386;8.370;2022-12-07T14:40:53;8.57;;;3.85;;
31990;SDS011;18508;49.386;8.370;2022-12-07T14:43:42;4.72;;;2.95;;
31990;SDS011;18508;49.386;8.370;2022-12-07T14:46:30;6.30;;;2.90;;
31990;SDS011;18508;49.386;8.370;2022-12-07T14:48:59;7.43;;;3.05;;
31990;SDS011;18508;49.386;8.370;2022-12-07T14:51:47;6.70;;;3.60;;
31990;SDS011;18508;49.386;8.370;2022-12-07T14:54:35;5.88;;;2.75;;
31990;SDS011;18508;49.386;8.370;2022-12-07T14:57:04;6.75;;;3.10;;
31990;SDS011;18508;49.386;8.370;2022-12-07T14:59:32;10.05;;;3.75;;
31990;SDS011;18508;49.386;8.370;2022-12-07T15:02:03;6.97;;;3.17;;
31990;SDS011;18508;49.386;8.370;2022-12-07T15:04:32;7.63;;;3.10;;
31990;SDS011;18508;49.386;8.370;2022-12-07T15:07:01;7.25;;;3.78;;
31990;SDS011;18508;49.386;8.370;2022-12-07T15:09:30;9.75;;;3.80;;
31990;SDS011;18508;49.386;8.370;2022-12-07T15:11:59;7.68;;;3.60;;
31990;SDS011;18508;49.386;8.370;2022-12-07T15:14:27;18.63;;;8.13;;
31990;SDS011;18508;49.386;8.370;2022-12-07T15:16:55;13.15;;;7.38;;
31990;SDS011;18508;49.386;8.370;2022-12-07T15:19:44;8.23;;;4.00;;
31990;SDS011;18508;49.386;8.370;2022-12-07T15:22:12;8.43;;;4.55;;
31990;SDS011;18508;49.386;8.370;2022-12-07T15:24:40;6.85;;;3.65;;
31990;SDS011;18508;49.386;8.370;2022-12-07T15:27:08;15.23;;;6.82;;
31990;SDS011;18508;49.386;8.370;2022-12-07T15:29:36;8.15;;;3.72;;
31990;SDS011;18508;49.386;8.370;2022-12-07T15:32:04;6.50;;;3.42;;
31990;SDS011;18508;49.386;8.370;2022-12-07T15:34:32;7.10;;;3.72;;
31990;SDS011;18508;49.386;8.370;2022-12-07T15:37:07;9.35;;;5.78;;
31990;SDS011;18508;49.386;8.370;2022-12-07T15:39:35;9.98;;;5.22;;
31990;SDS011;18508;49.386;8.370;2022-12-07T15:42:04;10.73;;;5.93;;
31990;SDS011;18508;49.386;8.370;2022-12-07T15:44:32;8.50;;;4.90;;
31990;SDS011;18508;49.386;8.370;2022-12-07T15:47:18;78.05;;;37.17;;
31990;SDS011;18508;49.386;8.370;2022-12-07T15:49:46;37.72;;;19.95;;
31990;SDS011;18508;49.386;8.370;2022-12-07T15:52:16;62.30;;;36.47;;